createdAt,value
2023-08-20T00:02:04.989Z,78
2023-08-20T00:05:04.980Z,78
2023-08-20T00:08:04.976Z,78
2023-08-20T00:11:04.981Z,78
2023-08-20T00:14:04.991Z,78
2023-08-20T00:17:04.986Z,78
2023-08-20T00:20:04.976Z,78
2023-08-20T00:23:04.985Z,78
2023-08-20T00:26:04.994Z,78
2023-08-20T00:29:04.976Z,78
2023-08-20T00:32:04.970Z,78
2023-08-20T00:35:04.969Z,78
2023-08-20T00:38:04.964Z,78
2023-08-20T00:41:04.965Z,78
2023-08-20T00:44:04.965Z,78
2023-08-20T00:47:04.991Z,78
2023-08-20T00:50:04.962Z,78
2023-08-20T00:53:04.965Z,78
2023-08-20T00:56:04.955Z,78
2023-08-20T00:59:04.967Z,78
2023-08-20T01:02:04.959Z,78
2023-08-20T01:05:04.955Z,79
2023-08-20T01:08:04.951Z,79
2023-08-20T01:11:04.950Z,79
2023-08-20T01:14:04.955Z,79
2023-08-20T01:17:04.948Z,79
2023-08-20T01:20:04.956Z,79
2023-08-20T01:23:04.949Z,79
2023-08-20T01:26:04.950Z,79
2023-08-20T01:29:04.975Z,79
2023-08-20T01:32:04.945Z,79
2023-08-20T01:35:04.941Z,79
2023-08-20T01:38:04.940Z,79
2023-08-20T01:41:04.946Z,79
2023-08-20T01:44:04.942Z,80
2023-08-20T01:47:04.938Z,80
2023-08-20T01:50:06.882Z,80
2023-08-20T01:53:04.928Z,80
2023-08-20T01:56:04.938Z,80
2023-08-20T01:59:04.939Z,80
2023-08-20T02:02:05.015Z,80
2023-08-20T02:05:04.941Z,80
2023-08-20T02:08:04.933Z,80
2023-08-20T02:11:04.945Z,80
2023-08-20T02:14:04.947Z,80
2023-08-20T02:17:04.936Z,80
2023-08-20T02:20:04.931Z,80
2023-08-20T02:23:04.934Z,80
2023-08-20T02:26:04.936Z,80
2023-08-20T02:29:04.930Z,80
2023-08-20T02:32:04.934Z,80
2023-08-20T02:35:04.929Z,80
2023-08-20T02:38:04.929Z,80
2023-08-20T02:41:04.924Z,81
2023-08-20T02:44:04.996Z,81
2023-08-20T02:47:04.926Z,81
2023-08-20T02:50:04.918Z,81
2023-08-20T02:53:04.928Z,81
2023-08-20T02:56:04.923Z,81
2023-08-20T02:59:04.929Z,81
2023-08-20T03:02:05.010Z,81
2023-08-20T03:05:04.925Z,81
2023-08-20T03:08:04.920Z,81
2023-08-20T03:11:04.910Z,81
2023-08-20T03:14:04.919Z,81
2023-08-20T03:17:04.961Z,81
2023-08-20T03:20:04.920Z,81
2023-08-20T03:23:04.930Z,81
2023-08-20T03:26:04.917Z,81
2023-08-20T03:29:04.947Z,81
2023-08-20T03:32:04.909Z,81
2023-08-20T03:35:04.905Z,81
2023-08-20T03:38:04.912Z,82
2023-08-20T03:41:04.911Z,82
2023-08-20T03:44:04.914Z,82
2023-08-20T03:47:06.472Z,82
2023-08-20T03:50:04.914Z,82
2023-08-20T03:53:04.913Z,82
2023-08-20T03:56:04.919Z,82
2023-08-20T03:59:04.914Z,82
2023-08-20T04:02:04.908Z,82
2023-08-20T04:05:04.906Z,82
2023-08-20T04:08:04.918Z,82
2023-08-20T04:11:04.938Z,82
2023-08-20T04:14:04.913Z,82
2023-08-20T04:17:04.904Z,82
2023-08-20T04:20:04.924Z,82
2023-08-20T04:23:04.890Z,82
2023-08-20T04:26:04.899Z,82
2023-08-20T04:29:04.903Z,82
2023-08-20T04:32:04.893Z,82
2023-08-20T04:35:04.898Z,82
2023-08-20T04:38:04.909Z,82
2023-08-20T04:41:04.911Z,82
2023-08-20T04:44:04.904Z,82
2023-08-20T04:47:04.907Z,82
2023-08-20T04:50:04.900Z,82
2023-08-20T04:53:04.898Z,82
2023-08-20T04:56:04.897Z,82
2023-08-20T04:59:04.902Z,82
2023-08-20T05:02:04.897Z,82
2023-08-20T05:05:04.887Z,82
2023-08-20T05:08:04.889Z,82
2023-08-20T05:11:04.895Z,82
2023-08-20T05:14:04.897Z,82
2023-08-20T05:17:04.896Z,82
2023-08-20T05:20:04.918Z,82
2023-08-20T05:23:04.886Z,82
2023-08-20T05:26:04.883Z,82
2023-08-20T05:29:04.891Z,82
2023-08-20T05:32:04.883Z,82
2023-08-20T05:35:07.670Z,82
2023-08-20T05:38:04.892Z,82
2023-08-20T05:41:04.892Z,82
2023-08-20T05:44:04.888Z,82
2023-08-20T05:47:04.889Z,82
2023-08-20T05:50:04.885Z,82
2023-08-20T05:53:04.878Z,82
2023-08-20T05:56:04.889Z,82
2023-08-20T05:59:04.918Z,82
2023-08-20T06:02:04.915Z,82
2023-08-20T06:05:04.887Z,82
2023-08-20T06:08:04.883Z,82
2023-08-20T06:11:04.889Z,82
2023-08-20T06:14:04.905Z,82
2023-08-20T06:17:04.886Z,82
2023-08-20T06:20:04.880Z,82
2023-08-20T06:23:04.877Z,81
2023-08-20T06:26:04.875Z,81
2023-08-20T06:29:04.891Z,81
2023-08-20T06:32:04.895Z,81
2023-08-20T06:35:04.881Z,81
2023-08-20T06:38:04.875Z,81
2023-08-20T06:41:04.879Z,81
2023-08-20T06:44:04.875Z,81
2023-08-20T06:47:04.881Z,81
2023-08-20T06:50:04.878Z,81
2023-08-20T06:53:04.871Z,81
2023-08-20T06:56:04.882Z,81
2023-08-20T06:59:04.881Z,81
2023-08-20T07:02:04.867Z,81
2023-08-20T07:05:04.920Z,81
2023-08-20T07:08:04.864Z,81
2023-08-20T07:11:04.869Z,81
2023-08-20T07:14:04.871Z,81
2023-08-20T07:17:04.868Z,80
2023-08-20T07:20:04.860Z,80
2023-08-20T07:23:05.501Z,80
2023-08-20T07:26:04.863Z,80
2023-08-20T07:32:04.864Z,80
2023-08-20T07:35:04.861Z,80
2023-08-20T07:38:04.875Z,80
2023-08-20T07:41:04.851Z,80
2023-08-20T07:44:04.853Z,80
2023-08-20T07:47:04.928Z,80
2023-08-20T07:50:04.876Z,80
2023-08-20T07:53:04.857Z,80
2023-08-20T07:56:04.869Z,80
2023-08-20T07:59:04.854Z,80
2023-08-20T08:02:04.859Z,80
2023-08-20T08:05:04.861Z,80
2023-08-20T08:08:04.862Z,80
2023-08-20T08:11:04.853Z,80
2023-08-20T08:14:04.859Z,80
2023-08-20T08:17:04.847Z,79
2023-08-20T08:20:04.878Z,79
2023-08-20T08:23:04.853Z,79
2023-08-20T08:26:04.851Z,79
2023-08-20T08:29:04.849Z,79
2023-08-20T08:32:04.853Z,79
2023-08-20T08:35:04.853Z,79
2023-08-20T08:38:04.844Z,79
2023-08-20T08:41:04.852Z,79
2023-08-20T08:44:04.845Z,79
2023-08-20T08:47:04.833Z,79
2023-08-20T08:50:04.857Z,79
2023-08-20T08:53:04.837Z,79
2023-08-20T08:56:04.851Z,79
2023-08-20T08:59:04.847Z,79
2023-08-20T09:02:04.838Z,79
2023-08-20T09:05:04.919Z,79
2023-08-20T09:11:04.837Z,78
2023-08-20T09:14:04.845Z,78
2023-08-20T09:17:04.854Z,78
2023-08-20T09:20:04.846Z,78
2023-08-20T09:23:04.845Z,78
2023-08-20T09:26:04.844Z,78
2023-08-20T09:29:04.839Z,78
2023-08-20T09:32:04.836Z,78
2023-08-20T09:35:04.835Z,78
2023-08-20T09:38:04.861Z,78
2023-08-20T09:41:04.862Z,78
2023-08-20T09:44:04.835Z,77
2023-08-20T09:47:04.821Z,77
2023-08-20T09:50:04.823Z,77
2023-08-20T09:53:04.828Z,77
2023-08-20T09:56:04.842Z,77
2023-08-20T09:59:04.831Z,76
2023-08-20T10:02:04.840Z,76
2023-08-20T10:05:04.842Z,76
2023-08-20T10:08:04.838Z,76
2023-08-20T10:11:04.838Z,76
2023-08-20T10:14:04.835Z,76
2023-08-20T10:17:04.827Z,75
2023-08-20T10:20:04.833Z,75
2023-08-20T10:23:04.837Z,75
2023-08-20T10:26:04.825Z,75
2023-08-20T10:29:04.833Z,75
2023-08-20T10:32:04.837Z,75
2023-08-20T10:35:04.826Z,74
2023-08-20T10:38:04.835Z,74
2023-08-20T10:41:04.822Z,74
2023-08-20T10:44:04.817Z,74
2023-08-20T10:47:04.821Z,74
2023-08-20T10:50:04.827Z,74
2023-08-20T10:53:04.829Z,73
2023-08-20T10:56:04.836Z,73
2023-08-20T10:59:04.836Z,72
2023-08-20T11:02:04.884Z,72
2023-08-20T11:05:04.827Z,72
2023-08-20T11:08:04.817Z,72
2023-08-20T11:11:04.829Z,71
2023-08-20T11:14:04.826Z,71
2023-08-20T11:17:04.912Z,71
2023-08-20T11:20:08.632Z,70
2023-08-20T11:23:04.817Z,70
2023-08-20T11:26:04.826Z,69
2023-08-20T11:29:04.827Z,69
2023-08-20T11:32:04.827Z,69
2023-08-20T11:35:04.817Z,69
2023-08-20T11:38:04.893Z,69
2023-08-20T11:41:04.838Z,69
2023-08-20T11:44:04.835Z,68
2023-08-20T11:47:04.830Z,68
2023-08-20T11:50:04.869Z,67
2023-08-20T11:53:04.831Z,67
2023-08-20T11:56:04.869Z,67
2023-08-20T11:59:04.838Z,67
2023-08-20T12:02:04.834Z,67
2023-08-20T12:05:04.824Z,67
2023-08-20T12:08:04.834Z,67
2023-08-20T12:11:04.826Z,67
2023-08-20T12:14:04.833Z,66
2023-08-20T12:17:04.835Z,66
2023-08-20T12:20:04.816Z,66
2023-08-20T12:23:04.821Z,66
2023-08-20T12:26:04.814Z,66
2023-08-20T12:29:04.816Z,66
2023-08-20T12:32:04.814Z,65
2023-08-20T12:35:04.820Z,65
2023-08-20T12:38:04.805Z,65
2023-08-20T12:44:04.808Z,65
2023-08-20T12:47:04.818Z,65
2023-08-20T12:50:04.809Z,65
2023-08-20T12:53:04.809Z,65
2023-08-20T12:56:04.801Z,64
2023-08-20T12:59:04.809Z,63
2023-08-20T13:02:04.864Z,63
2023-08-20T13:05:04.808Z,63
2023-08-20T13:08:04.806Z,63
2023-08-20T13:11:04.833Z,63
2023-08-20T13:14:04.809Z,63
2023-08-20T13:17:04.821Z,63
2023-08-20T13:20:04.804Z,63
2023-08-20T13:23:04.807Z,63
2023-08-20T13:26:04.823Z,62
2023-08-20T13:29:04.811Z,62
2023-08-20T13:32:04.806Z,62
2023-08-20T13:35:04.804Z,62
2023-08-20T13:38:04.808Z,62
2023-08-20T13:41:04.887Z,61
2023-08-20T13:44:04.813Z,61
2023-08-20T13:47:04.795Z,61
2023-08-20T13:50:04.804Z,61
2023-08-20T13:56:04.791Z,61
2023-08-20T13:59:04.792Z,61
2023-08-20T14:02:04.792Z,61
2023-08-20T14:05:04.784Z,61
2023-08-20T14:08:04.793Z,60
2023-08-20T14:11:04.784Z,60
2023-08-20T14:14:04.787Z,60
2023-08-20T14:17:04.782Z,60
2023-08-20T14:20:04.815Z,60
2023-08-20T14:23:04.784Z,60
2023-08-20T14:26:04.779Z,60
2023-08-20T14:29:04.781Z,60
2023-08-20T14:32:04.782Z,60
2023-08-20T14:35:04.790Z,60
2023-08-20T14:38:04.777Z,59
2023-08-20T14:41:04.963Z,59
2023-08-20T14:44:04.782Z,59
2023-08-20T14:47:04.770Z,59
2023-08-20T14:50:04.772Z,59
2023-08-20T14:53:04.772Z,59
2023-08-20T14:56:04.806Z,59
2023-08-20T14:59:04.770Z,59
2023-08-20T15:02:04.799Z,59
2023-08-20T15:05:04.776Z,59
2023-08-20T15:08:04.776Z,59
2023-08-20T15:11:04.780Z,59
2023-08-20T15:14:04.769Z,59
2023-08-20T15:17:04.765Z,59
2023-08-20T15:20:04.767Z,60
2023-08-20T15:23:04.764Z,60
2023-08-20T15:26:04.789Z,60
2023-08-20T15:29:04.766Z,60
2023-08-20T15:32:04.772Z,60
2023-08-20T15:35:04.768Z,60
2023-08-20T15:38:04.774Z,60
2023-08-20T15:44:04.776Z,60
2023-08-20T15:47:04.769Z,61
2023-08-20T15:50:04.753Z,61
2023-08-20T15:53:04.763Z,61
2023-08-20T15:56:04.761Z,61
2023-08-20T15:59:04.753Z,61
2023-08-20T16:02:04.781Z,61
2023-08-20T16:05:06.633Z,61
2023-08-20T16:08:04.755Z,61
2023-08-20T16:11:04.756Z,61
2023-08-20T16:14:04.754Z,61
2023-08-20T16:17:04.744Z,61
2023-08-20T16:20:04.747Z,61
2023-08-20T16:23:04.750Z,61
2023-08-20T16:26:04.758Z,62
2023-08-20T16:29:04.752Z,62
2023-08-20T16:32:04.783Z,62
2023-08-20T16:35:04.745Z,62
2023-08-20T16:38:04.745Z,62
2023-08-20T16:41:04.752Z,62
2023-08-20T16:44:04.751Z,62
2023-08-20T16:47:04.746Z,62
2023-08-20T16:50:04.742Z,62
2023-08-20T16:53:04.746Z,62
2023-08-20T16:56:04.781Z,63
2023-08-20T16:59:04.748Z,63
2023-08-20T17:02:04.738Z,63
2023-08-20T17:05:04.749Z,63
2023-08-20T17:08:04.739Z,63
2023-08-20T17:11:04.747Z,63
2023-08-20T17:14:04.753Z,63
2023-08-20T17:17:04.745Z,63
2023-08-20T17:20:04.734Z,63
2023-08-20T17:23:04.735Z,63
2023-08-20T17:26:04.735Z,63
2023-08-20T17:32:04.754Z,63
2023-08-20T17:35:04.738Z,63
2023-08-20T17:38:04.740Z,64
2023-08-20T17:41:04.749Z,64
2023-08-20T17:44:04.740Z,64
2023-08-20T17:47:04.736Z,64
2023-08-20T17:50:04.735Z,64
2023-08-20T17:53:04.732Z,64
2023-08-20T17:56:04.732Z,64
2023-08-20T17:59:04.745Z,64
2023-08-20T18:02:04.819Z,64
2023-08-20T18:05:05.457Z,64
2023-08-20T18:08:04.800Z,65
2023-08-20T18:11:04.795Z,65
2023-08-20T18:14:04.757Z,65
2023-08-20T18:17:04.757Z,65
2023-08-20T18:20:04.720Z,65
2023-08-20T18:23:05.507Z,65
2023-08-20T18:26:04.729Z,66
2023-08-20T18:29:04.744Z,66
2023-08-20T18:32:04.725Z,66
2023-08-20T18:35:04.722Z,66
2023-08-20T18:38:04.730Z,66
2023-08-20T18:41:04.719Z,66
2023-08-20T18:44:04.723Z,67
2023-08-20T18:47:04.725Z,67
2023-08-20T18:50:04.729Z,67
2023-08-20T18:53:04.717Z,67
2023-08-20T18:56:06.497Z,67
2023-08-20T18:59:04.718Z,68
2023-08-20T19:02:04.764Z,68
2023-08-20T19:05:04.718Z,68
2023-08-20T19:08:04.709Z,68
2023-08-20T19:11:04.703Z,68
2023-08-20T19:14:04.713Z,68
2023-08-20T19:17:04.716Z,68
2023-08-20T19:20:04.708Z,68
2023-08-20T19:23:04.717Z,69
2023-08-20T19:26:04.704Z,69
2023-08-20T19:29:04.704Z,69
2023-08-20T19:32:04.702Z,69
2023-08-20T19:35:04.695Z,69
2023-08-20T19:38:04.709Z,69
2023-08-20T19:41:04.691Z,69
2023-08-20T19:44:04.690Z,69
2023-08-20T19:47:04.703Z,70
2023-08-20T19:50:04.691Z,70
2023-08-20T19:53:04.703Z,70
2023-08-20T19:56:04.685Z,70
2023-08-20T19:59:04.685Z,70
2023-08-20T20:02:04.687Z,70
2023-08-20T20:08:04.697Z,70
2023-08-20T20:11:04.688Z,70
2023-08-20T20:14:04.688Z,70
2023-08-20T20:17:04.685Z,71
2023-08-20T20:20:06.722Z,71
2023-08-20T20:23:04.683Z,71
2023-08-20T20:26:04.688Z,71
2023-08-20T20:29:04.676Z,70
2023-08-20T20:32:04.687Z,70
2023-08-20T20:35:04.745Z,70
2023-08-20T20:38:04.684Z,70
2023-08-20T20:41:04.691Z,70
2023-08-20T20:44:04.733Z,70
2023-08-20T20:47:04.671Z,71
2023-08-20T20:50:04.688Z,71
2023-08-20T20:53:04.669Z,71
2023-08-20T20:56:04.667Z,71
2023-08-20T20:59:04.683Z,71
2023-08-20T21:02:04.735Z,71
2023-08-20T21:05:04.679Z,71
2023-08-20T21:08:04.666Z,71
2023-08-20T21:11:04.669Z,71
2023-08-20T21:14:04.673Z,72
2023-08-20T21:17:04.677Z,72
2023-08-20T21:20:04.667Z,72
2023-08-20T21:23:04.670Z,72
2023-08-20T21:26:04.666Z,72
2023-08-20T21:29:04.680Z,72
2023-08-20T21:32:04.672Z,72
2023-08-20T21:35:04.658Z,72
2023-08-20T21:38:04.670Z,72
2023-08-20T21:41:04.675Z,72
2023-08-20T21:44:04.665Z,72
2023-08-20T21:47:04.659Z,72
2023-08-20T21:50:04.661Z,72
2023-08-20T21:53:04.660Z,72
2023-08-20T21:56:04.713Z,72
2023-08-20T21:59:04.672Z,72
2023-08-20T22:02:04.662Z,72
2023-08-20T22:05:04.655Z,72
2023-08-20T22:08:04.665Z,72
2023-08-20T22:11:04.654Z,72
2023-08-20T22:14:04.664Z,72
2023-08-20T22:17:06.591Z,72
2023-08-20T22:20:04.665Z,72
2023-08-20T22:23:04.656Z,72
2023-08-20T22:26:04.653Z,72
2023-08-20T22:29:04.678Z,72
2023-08-20T22:32:04.660Z,72
2023-08-20T22:35:04.653Z,72
2023-08-20T22:38:04.653Z,72
2023-08-20T22:41:04.657Z,72
2023-08-20T22:44:04.669Z,72
2023-08-20T22:47:04.662Z,72
2023-08-20T22:50:04.649Z,72
2023-08-20T22:53:04.667Z,73
2023-08-20T22:56:04.654Z,73
2023-08-20T22:59:04.666Z,73
2023-08-20T23:02:04.662Z,73
2023-08-20T23:05:04.654Z,73
2023-08-20T23:08:04.653Z,73
2023-08-20T23:11:04.655Z,73
2023-08-20T23:14:04.654Z,73
2023-08-20T23:17:04.742Z,73
2023-08-20T23:20:04.646Z,73
2023-08-20T23:23:04.646Z,73
2023-08-20T23:26:04.651Z,73
2023-08-20T23:29:04.691Z,73
2023-08-20T23:32:04.653Z,73
2023-08-20T23:35:04.652Z,73
2023-08-20T23:38:04.653Z,73
2023-08-20T23:41:04.644Z,73
2023-08-20T23:44:04.676Z,74
2023-08-20T23:47:04.753Z,74
2023-08-20T23:50:04.655Z,74
2023-08-20T23:53:04.658Z,74
2023-08-20T23:56:04.645Z,74
2023-08-20T23:59:04.648Z,74
